createdAt,value
2024-02-16T00:00:17.994Z,100519.88
2024-02-16T00:02:47.257Z,100517.34
2024-02-16T00:05:14.531Z,100508.94
2024-02-16T00:07:41.652Z,100521.69
2024-02-16T00:10:10.299Z,100511.56
2024-02-16T00:12:41.122Z,100509.50
2024-02-16T00:15:08.996Z,100510.31
2024-02-16T00:17:36.531Z,100510.56
2024-02-16T00:20:04.345Z,100503.97
2024-02-16T00:22:31.411Z,100505.13
2024-02-16T00:24:58.407Z,100500.34
2024-02-16T00:27:25.492Z,100504.59
2024-02-16T00:29:54.023Z,100497.63
2024-02-16T00:33:21.808Z,100496.81
2024-02-16T00:35:50.971Z,100501.16
2024-02-16T00:38:18.163Z,100500.44
2024-02-16T00:40:45.815Z,100501.44
2024-02-16T00:43:12.886Z,100502.72
2024-02-16T00:45:48.250Z,100499.53
2024-02-16T00:48:15.479Z,100496.66
2024-02-16T00:50:44.618Z,100492.13
2024-02-16T00:53:12.072Z,100488.97
2024-02-16T00:55:39.591Z,100499.91
2024-02-16T00:58:07.079Z,100495.84
2024-02-16T01:00:34.268Z,100496.56
2024-02-16T01:03:02.792Z,100497.38
2024-02-16T01:05:29.791Z,100497.53
2024-02-16T01:07:56.906Z,100491.13
2024-02-16T01:10:24.321Z,100502.34
2024-02-16T01:12:53.876Z,100503.97
2024-02-16T01:15:20.916Z,100502.72
2024-02-16T01:17:48.247Z,100501.06
2024-02-16T01:20:17.049Z,100503.06
2024-02-16T01:22:44.084Z,100493.84
2024-02-16T01:25:11.253Z,100496.31
2024-02-16T01:27:38.582Z,100485.91
2024-02-16T01:30:06.615Z,100500.34
2024-02-16T01:32:33.789Z,100497.53
2024-02-16T01:35:00.919Z,100502.88
2024-02-16T01:37:29.473Z,100500.34
2024-02-16T01:39:56.633Z,100494.66
2024-02-16T01:42:23.674Z,100496.72
2024-02-16T01:44:51.538Z,100499.81
2024-02-16T01:47:20.414Z,100494.09
2024-02-16T01:49:47.429Z,100488.63
2024-02-16T01:52:14.670Z,100497.47
2024-02-16T01:54:45.876Z,100489.34
2024-02-16T01:57:29.294Z,100492.22
2024-02-16T01:59:56.450Z,100496.34
2024-02-16T02:02:23.563Z,100489.06
2024-02-16T02:04:50.839Z,100476.50
2024-02-16T02:07:18.392Z,100478.09
2024-02-16T02:09:46.947Z,100475.09
2024-02-16T02:12:26.260Z,100473.91
2024-02-16T02:14:53.464Z,100478.69
2024-02-16T02:17:20.443Z,100480.78
2024-02-16T02:19:47.824Z,100470.00
2024-02-16T02:22:18.530Z,100480.19
2024-02-16T02:24:45.620Z,100478.56
2024-02-16T02:27:13.108Z,100483.69
2024-02-16T02:29:40.539Z,100492.31
2024-02-16T02:32:14.403Z,100485.06
2024-02-16T02:34:44.715Z,100496.97
2024-02-16T02:37:11.736Z,100486.97
2024-02-16T02:39:40.099Z,100481.84
2024-02-16T02:44:36.522Z,100478.50
2024-02-16T02:47:03.617Z,100478.84
2024-02-16T02:49:30.894Z,100464.31
2024-02-16T02:51:57.984Z,100478.31
2024-02-16T02:54:24.883Z,100479.94
2024-02-16T02:56:54.521Z,100467.13
2024-02-16T02:59:21.581Z,100482.41
2024-02-16T03:01:48.923Z,100480.78
2024-02-16T03:04:15.967Z,100480.44
2024-02-16T03:06:43.284Z,100484.47
2024-02-16T03:09:11.719Z,100481.03
2024-02-16T03:11:38.722Z,100472.56
2024-02-16T03:14:07.180Z,100485.56
2024-02-16T03:16:38.900Z,100482.31
2024-02-16T03:19:10.230Z,100478.47
2024-02-16T03:21:40.310Z,100469.25
2024-02-16T03:24:07.899Z,100462.22
2024-02-16T03:26:35.443Z,100480.66
2024-02-16T03:29:02.510Z,100481.47
2024-02-16T03:31:31.216Z,100482.25
2024-02-16T03:35:00.063Z,100482.09
2024-02-16T03:37:27.289Z,100472.28
2024-02-16T03:39:54.894Z,100473.69
2024-02-16T03:45:22.786Z,100482.91
2024-02-16T03:47:53.692Z,100481.72
2024-02-16T03:50:21.096Z,100484.88
2024-02-16T03:52:48.008Z,100482.53
2024-02-16T03:55:17.648Z,100504.78
2024-02-16T03:57:44.630Z,100496.69
2024-02-16T04:00:13.647Z,100504.25
2024-02-16T04:02:40.839Z,100495.84
2024-02-16T04:05:09.775Z,100497.25
2024-02-16T04:07:37.402Z,100497.69
2024-02-16T04:10:04.927Z,100502.38
2024-02-16T04:12:32.024Z,100509.59
2024-02-16T04:14:59.800Z,100498.63
2024-02-16T04:17:26.822Z,100513.16
2024-02-16T04:19:54.040Z,100518.91
2024-02-16T04:22:24.749Z,100509.59
2024-02-16T04:24:52.144Z,100511.22
2024-02-16T04:27:19.143Z,100498.28
2024-02-16T04:29:46.114Z,100519.16
2024-02-16T04:32:13.508Z,100522.91
2024-02-16T04:34:40.678Z,100524.97
2024-02-16T04:37:08.082Z,100523.75
2024-02-16T04:39:36.505Z,100530.38
2024-02-16T04:42:03.909Z,100524.97
2024-02-16T04:44:30.886Z,100534.66
2024-02-16T04:46:57.882Z,100532.22
2024-02-16T04:49:25.143Z,100531.28
2024-02-16T04:51:52.448Z,100532.22
2024-02-16T04:54:19.450Z,100532.34
2024-02-16T04:56:48.031Z,100543.91
2024-02-16T04:59:15.518Z,100546.22
2024-02-16T05:01:43.958Z,100546.69
2024-02-16T05:04:11.337Z,100536.47
2024-02-16T05:06:40.636Z,100550.13
2024-02-16T05:09:07.654Z,100554.22
2024-02-16T05:11:34.823Z,100553.78
2024-02-16T05:14:03.264Z,100565.41
2024-02-16T05:16:30.265Z,100568.19
2024-02-16T05:19:00.502Z,100569.47
2024-02-16T05:21:27.833Z,100562.59
2024-02-16T05:23:55.043Z,100555.75
2024-02-16T05:26:22.241Z,100557.56
2024-02-16T05:28:49.300Z,100558.13
2024-02-16T05:31:19.930Z,100574.56
2024-02-16T05:33:50.158Z,100561.63
2024-02-16T05:36:19.662Z,100563.50
2024-02-16T05:38:46.837Z,100570.59
2024-02-16T05:41:14.353Z,100562.91
2024-02-16T05:43:44.539Z,100568.16
2024-02-16T05:46:14.511Z,100572.66
2024-02-16T05:48:43.092Z,100585.94
2024-02-16T05:51:10.255Z,100577.28
2024-02-16T05:53:38.688Z,100580.25
2024-02-16T05:56:06.684Z,100584.81
2024-02-16T05:58:34.831Z,100594.41
2024-02-16T06:01:02.051Z,100583.28
2024-02-16T06:03:29.193Z,100592.25
2024-02-16T06:05:57.728Z,100591.06
2024-02-16T06:15:43.021Z,100614.31
2024-02-16T07:27:27.148Z,100725.63
2024-02-16T07:29:55.734Z,100736.00
2024-02-16T07:32:23.404Z,100734.50
2024-02-16T07:34:50.799Z,100733.31
2024-02-16T07:37:17.903Z,100737.78
2024-02-16T07:39:44.989Z,100751.53
2024-02-16T07:42:14.178Z,100757.13
2024-02-16T07:44:55.936Z,100759.34
2024-02-16T07:47:23.323Z,100767.38
2024-02-16T07:49:51.081Z,100772.53
2024-02-16T07:52:18.099Z,100781.50
2024-02-16T07:54:45.560Z,100778.47
2024-02-16T07:57:12.815Z,100783.94
2024-02-16T07:59:41.734Z,100788.25
2024-02-16T08:02:10.867Z,100797.25
2024-02-16T08:04:38.007Z,100798.44
2024-02-16T08:07:05.136Z,100792.56
2024-02-16T08:09:32.423Z,100802.03
2024-02-16T08:11:59.602Z,100800.63
2024-02-16T08:14:26.828Z,100806.94
2024-02-16T08:17:00.898Z,100818.47
2024-02-16T08:19:37.705Z,100826.75
2024-02-16T08:22:06.797Z,100829.53
2024-02-16T08:24:34.491Z,100827.78
2024-02-16T08:27:01.789Z,100837.13
2024-02-16T08:29:29.131Z,100837.81
2024-02-16T08:31:56.825Z,100843.41
2024-02-16T08:34:24.528Z,100839.34
2024-02-16T08:36:53.382Z,100849.34
2024-02-16T08:39:23.773Z,100845.75
2024-02-16T08:41:51.517Z,100854.63
2024-02-16T08:44:20.218Z,100849.81
2024-02-16T08:46:50.780Z,100860.31
2024-02-16T08:49:18.351Z,100873.13
2024-02-16T08:51:45.927Z,100878.63
2024-02-16T08:54:15.078Z,100877.81
2024-02-16T08:56:42.965Z,100890.84
2024-02-16T08:59:10.684Z,100890.72
2024-02-16T09:01:42.996Z,100885.63
2024-02-16T09:04:10.952Z,100882.69
2024-02-16T09:06:44.876Z,100886.78
2024-02-16T09:09:12.613Z,100890.72
2024-02-16T09:11:42.080Z,100902.88
2024-02-16T09:14:09.486Z,100911.59
2024-02-16T09:16:49.999Z,100916.38
2024-02-16T09:23:57.136Z,100927.78
2024-02-16T09:26:26.358Z,100934.19
2024-02-16T09:28:55.219Z,100945.75
2024-02-16T09:31:25.060Z,100944.59
2024-02-16T09:33:53.425Z,100944.25
2024-02-16T09:36:58.845Z,100943.28
2024-02-16T09:47:53.803Z,100963.84
2024-02-16T09:54:21.878Z,100983.88
2024-02-16T09:57:59.614Z,100992.75
2024-02-16T10:01:02.232Z,100990.31
2024-02-16T10:04:22.962Z,101006.13
2024-02-16T10:06:54.342Z,101020.94
2024-02-16T10:09:25.363Z,101025.03
2024-02-16T10:11:52.998Z,101036.72
2024-02-16T10:14:20.856Z,101035.78
2024-02-16T10:16:49.465Z,101036.72
2024-02-16T10:19:57.750Z,101044.50
2024-02-16T10:22:56.324Z,101063.47
2024-02-16T10:25:25.866Z,101069.88
2024-02-16T10:28:11.918Z,101072.22
2024-02-16T10:30:47.028Z,101080.63
2024-02-16T10:33:27.013Z,101085.09
2024-02-16T10:36:58.178Z,101089.00
2024-02-16T10:40:01.176Z,101106.13
2024-02-16T10:42:38.182Z,101116.19
2024-02-16T10:45:19.269Z,101122.16
2024-02-16T10:47:49.427Z,101116.41
2024-02-16T10:50:59.134Z,101121.94
2024-02-16T10:53:30.404Z,101127.94
2024-02-16T10:56:02.688Z,101121.88
2024-02-16T10:58:30.917Z,101125.50
2024-02-16T11:00:59.287Z,101145.47
2024-02-16T11:03:28.699Z,101140.91
2024-02-16T11:05:58.523Z,101142.84
2024-02-16T11:08:29.574Z,101148.84
2024-02-16T11:10:58.686Z,101147.97
2024-02-16T11:13:27.087Z,101157.59
2024-02-16T11:16:01.509Z,101158.09
2024-02-16T11:18:29.804Z,101166.34
2024-02-16T11:20:57.336Z,101173.19
2024-02-16T11:23:31.290Z,101173.66
2024-02-16T11:26:02.810Z,101177.91
2024-02-16T11:28:32.297Z,101180.38
2024-02-16T11:31:02.031Z,101177.03
2024-02-16T11:33:30.449Z,101181.88
2024-02-16T11:35:59.026Z,101191.56
2024-02-16T11:38:26.464Z,101197.75
2024-02-16T11:41:00.274Z,101194.88
2024-02-16T11:43:27.819Z,101199.28
2024-02-16T11:45:55.397Z,101198.69
2024-02-16T11:48:26.230Z,101198.31
2024-02-16T11:51:01.059Z,101218.72
2024-02-16T11:53:28.857Z,101214.88
2024-02-16T11:55:56.311Z,101221.19
2024-02-16T11:58:25.683Z,101226.09
2024-02-16T12:00:53.363Z,101224.13
2024-02-16T12:03:21.574Z,101228.56
2024-02-16T12:05:52.942Z,101228.81
2024-02-16T12:08:20.633Z,101239.38
2024-02-16T12:10:49.225Z,101245.91
2024-02-16T12:13:17.654Z,101254.94
2024-02-16T12:15:47.177Z,101262.44
2024-02-16T12:18:21.432Z,101262.91
2024-02-16T12:20:59.017Z,101263.25
2024-02-16T12:23:26.148Z,101264.63
2024-02-16T12:25:54.148Z,101265.78
2024-02-16T12:28:21.456Z,101263.06
2024-02-16T12:30:50.688Z,101279.09
2024-02-16T12:33:18.085Z,101277.75
2024-02-16T12:35:45.353Z,101280.06
2024-02-16T12:38:13.024Z,101286.88
2024-02-16T12:40:45.813Z,101290.22
2024-02-16T12:43:15.043Z,101298.22
2024-02-16T12:45:42.843Z,101292.44
2024-02-16T12:48:16.121Z,101298.53
2024-02-16T12:50:43.648Z,101308.63
2024-02-16T12:53:11.855Z,101307.44
2024-02-16T12:55:39.934Z,101306.28
2024-02-16T12:58:12.627Z,101315.06
2024-02-16T13:00:39.758Z,101318.94
2024-02-16T13:03:08.113Z,101319.56
2024-02-16T13:05:36.789Z,101325.28
2024-02-16T13:08:04.333Z,101323.78
2024-02-16T13:10:31.699Z,101333.69
2024-02-16T13:12:58.643Z,101332.16
2024-02-16T13:15:28.759Z,101330.81
2024-02-16T13:17:57.404Z,101349.03
2024-02-16T13:20:24.802Z,101341.59
2024-02-16T13:22:53.409Z,101343.22
2024-02-16T13:25:20.985Z,101341.53
2024-02-16T13:27:48.104Z,101350.22
2024-02-16T13:30:15.998Z,101350.91
2024-02-16T13:33:07.082Z,101352.41
2024-02-16T13:35:36.763Z,101353.91
2024-02-16T13:38:06.277Z,101358.31
2024-02-16T13:40:34.870Z,101366.03
2024-02-16T13:43:03.459Z,101360.47
2024-02-16T13:45:48.358Z,101372.28
2024-02-16T13:48:16.025Z,101367.69
2024-02-16T13:50:45.729Z,101367.00
2024-02-16T13:53:17.695Z,101370.94
2024-02-16T13:55:50.121Z,101382.47
2024-02-16T13:58:24.120Z,101388.31
2024-02-16T14:00:51.497Z,101390.34
2024-02-16T14:03:18.989Z,101394.56
2024-02-16T14:05:47.324Z,101391.72
2024-02-16T14:08:17.271Z,101392.22
2024-02-16T14:10:44.447Z,101401.63
2024-02-16T14:13:14.909Z,101409.50
2024-02-16T14:15:43.670Z,101394.50
2024-02-16T14:18:14.963Z,101402.84
2024-02-16T14:20:49.229Z,101401.94
2024-02-16T14:23:18.233Z,101394.94
2024-02-16T14:25:46.500Z,101397.09
2024-02-16T14:28:17.445Z,101402.53
2024-02-16T14:30:44.613Z,101411.91
2024-02-16T14:33:19.089Z,101410.44
2024-02-16T14:35:50.210Z,101418.41
2024-02-16T14:38:18.816Z,101425.56
2024-02-16T14:40:46.192Z,101429.31
2024-02-16T14:43:13.572Z,101433.88
2024-02-16T14:45:40.926Z,101436.91
2024-02-16T14:48:08.715Z,101438.16
2024-02-16T14:50:37.093Z,101444.84
2024-02-16T14:53:04.889Z,101437.56
2024-02-16T14:55:33.575Z,101432.09
2024-02-16T14:58:00.823Z,101438.06
2024-02-16T15:00:28.220Z,101433.56
2024-02-16T15:02:55.486Z,101438.13
2024-02-16T15:05:22.501Z,101438.59
2024-02-16T15:07:51.265Z,101452.31
2024-02-16T15:10:18.606Z,101459.53
2024-02-16T15:12:47.247Z,101460.09
2024-02-16T15:15:14.793Z,101467.31
2024-02-16T15:17:42.144Z,101470.00
2024-02-16T15:20:09.930Z,101478.47
2024-02-16T15:22:45.417Z,101475.56
2024-02-16T15:25:16.657Z,101483.84
2024-02-16T15:27:44.183Z,101491.03
2024-02-16T15:30:13.260Z,101485.28
2024-02-16T15:32:40.495Z,101495.88
2024-02-16T15:35:08.683Z,101507.44
2024-02-16T15:37:36.207Z,101520.09
2024-02-16T15:40:03.669Z,101527.31
2024-02-16T15:42:32.443Z,101521.53
2024-02-16T15:45:00.665Z,101531.84
2024-02-16T15:47:29.366Z,101541.63
2024-02-16T15:49:56.402Z,101540.75
2024-02-16T15:52:23.558Z,101541.63
2024-02-16T15:54:50.639Z,101550.22
2024-02-16T15:57:20.086Z,101554.31
2024-02-16T15:59:48.248Z,101562.94
2024-02-16T16:02:15.415Z,101553.94
2024-02-16T16:04:44.110Z,101563.97
2024-02-16T16:07:15.532Z,101564.53
2024-02-16T16:09:42.857Z,101573.75
2024-02-16T16:12:15.966Z,101575.75
2024-02-16T16:14:43.537Z,101572.34
2024-02-16T16:17:10.546Z,101586.84
2024-02-16T16:19:40.845Z,101583.06
2024-02-16T16:22:09.343Z,101582.25
2024-02-16T16:24:36.306Z,101592.44
2024-02-16T16:27:03.993Z,101588.00
2024-02-16T16:29:32.261Z,101598.53
2024-02-16T16:32:03.038Z,101604.78
2024-02-16T16:34:31.690Z,101606.25
2024-02-16T16:36:59.252Z,101614.31
2024-02-16T16:39:27.825Z,101616.63
2024-02-16T16:41:58.816Z,101622.19
2024-02-16T16:44:26.638Z,101625.78
2024-02-16T16:46:53.992Z,101628.25
2024-02-16T16:49:21.323Z,101631.00
2024-02-16T16:51:52.461Z,101636.88
2024-02-16T16:54:19.847Z,101646.09
2024-02-16T16:56:48.456Z,101653.63
2024-02-16T16:59:15.588Z,101658.53
2024-02-16T17:01:43.025Z,101660.31
2024-02-16T17:04:13.788Z,101656.19
2024-02-16T17:06:41.049Z,101668.50
2024-02-16T17:09:11.285Z,101669.34
2024-02-16T17:11:40.245Z,101676.78
2024-02-16T17:14:09.254Z,101686.63
2024-02-16T17:16:36.422Z,101689.53
2024-02-16T17:19:04.746Z,101688.53
2024-02-16T17:21:31.992Z,101699.47
2024-02-16T17:23:59.150Z,101703.72
2024-02-16T17:26:26.198Z,101709.84
2024-02-16T17:28:53.311Z,101718.41
2024-02-16T17:31:24.715Z,101727.25
2024-02-16T17:33:52.232Z,101725.22
2024-02-16T17:36:20.051Z,101730.78
2024-02-16T17:38:47.369Z,101718.22
2024-02-16T17:41:15.251Z,101732.19
2024-02-16T17:43:45.969Z,101730.47
2024-02-16T17:46:13.359Z,101731.63
2024-02-16T17:48:42.011Z,101736.31
2024-02-16T17:51:11.506Z,101743.63
2024-02-16T17:53:39.720Z,101741.78
2024-02-16T17:56:10.564Z,101745.22
2024-02-16T17:58:37.959Z,101757.19
2024-02-16T18:01:05.510Z,101764.31
2024-02-16T18:03:36.624Z,101757.41
2024-02-16T18:06:05.691Z,101763.25
2024-02-16T18:08:32.678Z,101770.41
2024-02-16T18:10:59.879Z,101776.69
2024-02-16T18:13:27.443Z,101779.69
2024-02-16T18:16:06.244Z,101784.50
2024-02-16T18:18:33.957Z,101788.84
2024-02-16T18:21:01.458Z,101789.56
2024-02-16T18:23:31.548Z,101796.16
2024-02-16T18:25:59.642Z,101797.81
2024-02-16T18:28:34.136Z,101796.97
2024-02-16T18:31:09.415Z,101802.19
2024-02-16T18:33:36.489Z,101801.97
2024-02-16T18:36:06.509Z,101810.56
2024-02-16T18:38:36.940Z,101812.34
2024-02-16T18:41:19.929Z,101827.25
2024-02-16T18:43:47.707Z,101828.28
2024-02-16T18:46:17.778Z,101832.63
2024-02-16T18:48:47.926Z,101843.88
2024-02-16T18:51:16.267Z,101838.78
2024-02-16T18:53:48.253Z,101836.22
2024-02-16T18:56:15.946Z,101846.78
2024-02-16T18:58:46.094Z,101845.00
2024-02-16T19:01:19.008Z,101862.75
2024-02-16T19:03:49.327Z,101861.13
2024-02-16T19:06:18.061Z,101866.91
2024-02-16T19:08:47.870Z,101869.91
2024-02-16T19:11:15.179Z,101866.50
2024-02-16T19:13:42.526Z,101871.13
2024-02-16T19:16:09.691Z,101869.50
2024-02-16T19:18:37.609Z,101880.13
2024-02-16T19:21:07.695Z,101887.06
2024-02-16T19:23:35.868Z,101892.53
2024-02-16T19:26:06.496Z,101891.19
2024-02-16T19:28:39.312Z,101892.31
2024-02-16T19:31:08.051Z,101900.69
2024-02-16T19:33:36.555Z,101894.50
2024-02-16T19:36:05.346Z,101895.09
2024-02-16T19:38:33.295Z,101895.34
2024-02-16T19:41:00.529Z,101901.66
2024-02-16T19:43:30.007Z,101907.00
2024-02-16T19:45:57.441Z,101909.31
2024-02-16T19:48:25.073Z,101910.94
2024-02-16T19:50:52.491Z,101914.75
2024-02-16T19:53:19.806Z,101922.84
2024-02-16T19:55:47.945Z,101929.75
2024-02-16T19:58:24.962Z,101927.50
2024-02-16T20:00:54.184Z,101937.81
2024-02-16T20:03:24.651Z,101938.13
2024-02-16T20:05:53.127Z,101944.03
2024-02-16T20:08:24.690Z,101941.22
2024-02-16T20:10:52.853Z,101956.53
2024-02-16T20:13:20.024Z,101962.94
2024-02-16T20:15:47.228Z,101963.81
2024-02-16T20:18:20.004Z,101953.94
2024-02-16T20:20:47.502Z,101965.97
2024-02-16T20:23:16.900Z,101970.69
2024-02-16T20:25:44.687Z,101973.41
2024-02-16T20:28:11.882Z,101984.28
2024-02-16T20:30:39.572Z,101989.00
2024-02-16T20:33:07.498Z,101990.88
2024-02-16T20:35:36.080Z,101996.28
2024-02-16T20:38:04.193Z,101997.38
2024-02-16T20:40:31.491Z,102003.81
2024-02-16T20:43:00.257Z,102007.97
2024-02-16T20:45:27.520Z,102015.81
2024-02-16T20:47:54.980Z,102011.81
2024-02-16T20:50:23.244Z,102015.19
2024-02-16T20:52:54.517Z,102019.72
2024-02-16T20:55:21.822Z,102024.72
2024-02-16T20:57:51.295Z,102025.22
2024-02-16T21:00:19.338Z,102030.41
2024-02-16T21:02:46.511Z,102037.34
2024-02-16T21:05:14.635Z,102036.28
2024-02-16T21:07:42.322Z,102039.50
2024-02-16T21:10:11.213Z,102038.78
2024-02-16T21:12:38.595Z,102048.69
2024-02-16T21:15:07.970Z,102045.63
2024-02-16T21:17:35.463Z,102052.94
2024-02-16T21:20:02.864Z,102054.09
2024-02-16T21:22:29.947Z,102062.38
2024-02-16T21:24:57.014Z,102069.06
2024-02-16T21:27:30.237Z,102076.63
2024-02-16T21:29:57.304Z,102073.41
2024-02-16T21:32:24.525Z,102067.63
2024-02-16T21:35:05.255Z,102074.41
2024-02-16T21:37:32.420Z,102072.56
2024-02-16T21:40:01.074Z,102073.88
2024-02-16T21:42:29.708Z,102085.13
2024-02-16T21:44:56.734Z,102083.06
2024-02-16T21:47:23.865Z,102087.97
2024-02-16T21:49:51.419Z,102086.06
2024-02-16T21:52:18.561Z,102085.94
2024-02-16T21:54:45.743Z,102091.91
2024-02-16T21:57:12.884Z,102100.34
2024-02-16T21:59:41.328Z,102097.84
2024-02-16T22:02:08.379Z,102099.56
2024-02-16T22:04:35.558Z,102098.38
2024-02-16T22:07:02.914Z,102094.00
2024-02-16T22:09:30.227Z,102099.34
2024-02-16T22:11:57.414Z,102098.66
2024-02-16T22:14:24.586Z,102100.19
2024-02-16T22:16:53.126Z,102109.09
2024-02-16T22:19:21.473Z,102117.56
2024-02-16T22:21:49.527Z,102121.09
2024-02-16T22:24:16.681Z,102129.53
2024-02-16T22:26:43.833Z,102128.09
2024-02-16T22:29:11.005Z,102128.59
2024-02-16T22:31:42.188Z,102130.22
2024-02-16T22:34:13.410Z,102130.22
2024-02-16T22:36:41.301Z,102139.94
2024-02-16T22:39:08.470Z,102137.69
2024-02-16T22:41:35.643Z,102141.28
2024-02-16T22:44:02.802Z,102150.19
2024-02-16T22:46:29.940Z,102152.38
2024-02-16T22:48:57.271Z,102149.31
2024-02-16T22:51:34.010Z,102151.78
2024-02-16T22:54:04.954Z,102156.78
2024-02-16T22:56:32.017Z,102161.19
2024-02-16T22:58:58.984Z,102150.91
2024-02-16T23:01:26.140Z,102161.19
2024-02-16T23:03:53.489Z,102159.28
2024-02-16T23:06:22.490Z,102159.88
2024-02-16T23:08:50.975Z,102167.38
2024-02-16T23:11:18.095Z,102171.25
2024-02-16T23:13:45.418Z,102172.06
2024-02-16T23:16:12.444Z,102181.03
2024-02-16T23:18:43.988Z,102184.09
2024-02-16T23:21:11.167Z,102193.38
2024-02-16T23:23:38.453Z,102178.06
2024-02-16T23:26:08.135Z,102193.97
2024-02-16T23:28:40.872Z,102195.69
2024-02-16T23:31:07.954Z,102203.22
2024-02-16T23:33:35.219Z,102202.97
2024-02-16T23:36:02.576Z,102211.88
2024-02-16T23:38:30.332Z,102209.94
2024-02-16T23:40:58.503Z,102213.00
2024-02-16T23:43:26.992Z,102214.72
2024-02-16T23:45:54.152Z,102212.75
2024-02-16T23:48:21.351Z,102224.75
2024-02-16T23:50:48.643Z,102223.91
2024-02-16T23:53:15.790Z,102226.09
2024-02-16T23:55:42.842Z,102231.69
2024-02-16T23:58:09.815Z,102230.84
